createdAt,value
2023-02-05T00:02:00.286Z,12.73
2023-02-05T00:04:45.664Z,11.93
2023-02-05T00:07:31.092Z,13.27
2023-02-05T00:10:17.594Z,12.03
2023-02-05T00:13:03.192Z,15.90
2023-02-05T00:15:49.553Z,14.80
2023-02-05T00:18:34.913Z,13.90
2023-02-05T00:21:21.865Z,11.97
2023-02-05T00:24:07.884Z,18.50
2023-02-05T00:26:53.460Z,14.17
2023-02-05T00:29:38.802Z,16.37
2023-02-05T00:32:24.359Z,13.77
2023-02-05T00:35:09.982Z,15.97
2023-02-05T00:37:56.418Z,16.43
2023-02-05T00:40:41.713Z,13.67
2023-02-05T00:43:27.217Z,15.33
2023-02-05T00:46:13.922Z,14.60
2023-02-05T00:48:59.235Z,15.00
2023-02-05T00:51:44.908Z,15.47
2023-02-05T00:54:30.139Z,11.67
2023-02-05T00:57:15.748Z,14.20
2023-02-05T01:00:01.428Z,11.03
2023-02-05T01:02:46.703Z,16.37
2023-02-05T01:05:34.665Z,13.87
2023-02-05T01:08:20.459Z,13.10
2023-02-05T01:11:12.843Z,13.33
2023-02-05T01:13:58.239Z,14.97
2023-02-05T01:16:43.686Z,14.23
2023-02-05T01:19:29.104Z,14.03
2023-02-05T01:22:16.032Z,12.17
2023-02-05T01:25:01.694Z,12.67
2023-02-05T01:27:47.192Z,13.53
2023-02-05T01:30:33.578Z,12.87
2023-02-05T01:33:19.367Z,14.50
2023-02-05T01:36:04.960Z,13.43
2023-02-05T01:38:50.617Z,13.97
2023-02-05T01:41:36.181Z,14.83
2023-02-05T01:44:24.831Z,16.70
2023-02-05T01:47:10.724Z,14.87
2023-02-05T01:49:56.823Z,16.57
2023-02-05T01:52:42.439Z,16.37
2023-02-05T01:55:29.134Z,16.37
2023-02-05T01:58:15.135Z,13.93
2023-02-05T02:01:00.934Z,13.43
2023-02-05T02:03:47.838Z,13.70
2023-02-05T02:06:35.118Z,14.27
2023-02-05T02:09:20.950Z,14.77
2023-02-05T02:12:08.630Z,16.60
2023-02-05T02:14:59.937Z,13.67
2023-02-05T02:17:48.683Z,17.97
2023-02-05T02:20:41.134Z,16.53
2023-02-05T02:23:45.197Z,15.23
2023-02-05T02:26:53.637Z,12.93
2023-02-05T02:30:01.192Z,13.20
2023-02-05T02:32:54.160Z,14.27
2023-02-05T02:35:54.083Z,17.80
2023-02-05T02:38:51.125Z,13.93
2023-02-05T02:41:50.520Z,12.90
2023-02-05T02:44:53.487Z,15.60
2023-02-05T02:47:47.129Z,12.97
2023-02-05T02:50:37.580Z,15.43
2023-02-05T02:53:36.555Z,13.97
2023-02-05T02:56:24.525Z,15.33
2023-02-05T02:59:14.328Z,13.97
2023-02-05T03:02:04.637Z,13.43
2023-02-05T03:04:58.544Z,14.93
2023-02-05T03:07:56.387Z,14.65
2023-02-05T03:10:53.215Z,13.70
2023-02-05T03:13:39.015Z,12.20
2023-02-05T03:16:26.415Z,16.67
2023-02-05T03:19:11.760Z,14.47
2023-02-05T03:22:02.149Z,14.43
2023-02-05T03:24:47.622Z,13.33
2023-02-05T03:27:33.937Z,12.70
2023-02-05T03:30:19.924Z,13.70
2023-02-05T03:33:16.216Z,17.33
2023-02-05T03:36:17.059Z,13.83
2023-02-05T03:39:17.363Z,15.73
2023-02-05T03:42:28.561Z,12.20
2023-02-05T03:45:39.845Z,15.20
2023-02-05T03:48:37.130Z,15.87
2023-02-05T03:51:46.748Z,14.60
2023-02-05T03:54:45.802Z,16.80
2023-02-05T03:57:44.768Z,21.47
2023-02-05T04:00:31.640Z,16.57
2023-02-05T04:03:17.204Z,16.67
2023-02-05T04:06:02.951Z,18.03
2023-02-05T04:08:48.229Z,14.70
2023-02-05T04:11:33.714Z,13.20
2023-02-05T04:14:19.018Z,16.07
2023-02-05T04:17:04.530Z,10.60
2023-02-05T04:19:50.226Z,14.60
2023-02-05T04:22:35.554Z,14.93
2023-02-05T04:25:20.953Z,14.23
2023-02-05T04:28:07.050Z,18.67
2023-02-05T04:30:52.414Z,16.23
2023-02-05T04:33:41.389Z,13.80
2023-02-05T04:36:26.962Z,17.67
2023-02-05T04:39:12.576Z,15.47
2023-02-05T04:41:57.832Z,15.23
2023-02-05T04:44:43.468Z,11.90
2023-02-05T04:47:30.517Z,14.50
2023-02-05T04:50:16.473Z,12.90
2023-02-05T04:53:02.318Z,17.53
2023-02-05T04:55:47.889Z,16.73
2023-02-05T04:58:33.492Z,14.80
2023-02-05T05:01:21.931Z,16.57
2023-02-05T05:04:07.382Z,14.80
2023-02-05T05:06:53.139Z,17.60
2023-02-05T05:09:38.702Z,15.20
2023-02-05T05:12:24.253Z,16.47
2023-02-05T05:15:10.080Z,16.97
2023-02-05T05:17:55.396Z,18.30
2023-02-05T05:20:42.655Z,19.97
2023-02-05T05:23:28.129Z,16.40
2023-02-05T05:26:13.681Z,19.93
2023-02-05T05:28:59.012Z,16.77
2023-02-05T05:31:44.466Z,15.83
2023-02-05T05:34:30.153Z,17.70
2023-02-05T05:37:15.482Z,16.27
2023-02-05T05:40:19.608Z,14.47
2023-02-05T05:43:23.382Z,16.63
2023-02-05T05:46:08.850Z,16.27
2023-02-05T05:48:59.749Z,16.43
2023-02-05T05:51:45.191Z,16.57
2023-02-05T05:54:30.862Z,18.60
2023-02-05T05:57:16.282Z,17.60
2023-02-05T06:00:02.936Z,15.73
2023-02-05T06:02:48.293Z,18.77
2023-02-05T06:05:34.332Z,18.67
2023-02-05T06:08:19.863Z,15.47
2023-02-05T06:11:05.311Z,17.50
2023-02-05T06:13:50.961Z,17.17
2023-02-05T06:16:36.479Z,16.40
2023-02-05T06:19:23.064Z,15.37
2023-02-05T06:22:08.638Z,14.80
2023-02-05T06:24:54.256Z,14.33
2023-02-05T06:27:39.553Z,15.07
2023-02-05T06:30:25.497Z,14.00
2023-02-05T06:33:12.817Z,16.13
2023-02-05T06:35:58.185Z,16.77
2023-02-05T06:38:43.654Z,16.13
2023-02-05T06:41:29.370Z,18.60
2023-02-05T06:44:14.948Z,16.10
2023-02-05T06:47:01.193Z,16.93
2023-02-05T06:49:46.712Z,15.63
2023-02-05T06:52:32.215Z,12.10
2023-02-05T06:55:18.552Z,16.50
2023-02-05T06:58:04.062Z,17.20
2023-02-05T07:00:49.305Z,15.37
2023-02-05T07:03:34.856Z,15.57
2023-02-05T07:06:20.403Z,16.67
2023-02-05T07:09:06.184Z,12.60
2023-02-05T07:11:52.094Z,13.77
2023-02-05T07:14:39.068Z,14.07
2023-02-05T07:17:24.586Z,15.57
2023-02-05T07:20:10.647Z,12.80
2023-02-05T07:22:56.290Z,15.17
2023-02-05T07:25:41.879Z,13.57
2023-02-05T07:28:27.411Z,14.20
2023-02-05T07:31:15.903Z,15.67
2023-02-05T07:34:01.892Z,16.97
2023-02-05T07:36:50.792Z,19.63
2023-02-05T07:39:36.018Z,16.00
2023-02-05T07:42:21.644Z,17.27
2023-02-05T07:45:07.656Z,17.73
2023-02-05T07:47:53.965Z,16.33
2023-02-05T07:50:44.175Z,17.60
2023-02-05T07:53:29.792Z,13.10
2023-02-05T07:56:16.003Z,15.70
2023-02-05T07:59:01.940Z,22.00
2023-02-05T08:01:47.433Z,13.50
2023-02-05T08:04:33.365Z,13.47
2023-02-05T08:07:18.808Z,14.40
2023-02-05T08:10:05.173Z,12.47
2023-02-05T08:12:50.458Z,13.67
2023-02-05T08:15:39.202Z,17.03
2023-02-05T08:18:25.287Z,19.77
2023-02-05T08:21:10.893Z,15.80
2023-02-05T08:23:58.520Z,18.00
2023-02-05T08:26:44.246Z,15.63
2023-02-05T08:29:29.487Z,13.00
2023-02-05T08:32:15.102Z,14.17
2023-02-05T08:35:00.710Z,15.37
2023-02-05T08:37:46.233Z,14.60
2023-02-05T08:40:31.545Z,18.93
2023-02-05T08:43:17.455Z,17.37
2023-02-05T08:46:04.158Z,17.77
2023-02-05T08:48:49.852Z,13.27
2023-02-05T08:51:35.814Z,15.87
2023-02-05T08:54:21.146Z,14.53
2023-02-05T08:57:06.665Z,15.13
2023-02-05T08:59:52.245Z,15.67
2023-02-05T09:02:37.524Z,14.17
2023-02-05T09:05:23.121Z,19.50
2023-02-05T09:08:08.645Z,17.73
2023-02-05T09:10:54.652Z,19.43
2023-02-05T09:13:40.709Z,15.47
2023-02-05T09:16:27.087Z,16.93
2023-02-05T09:19:12.621Z,15.63
2023-02-05T09:21:58.524Z,14.73
2023-02-05T09:24:43.891Z,16.97
2023-02-05T09:27:30.486Z,16.73
2023-02-05T09:30:15.902Z,15.43
2023-02-05T09:33:01.294Z,17.10
2023-02-05T09:35:46.957Z,15.40
2023-02-05T09:38:32.116Z,14.70
2023-02-05T09:41:42.950Z,13.73
2023-02-05T09:44:49.716Z,13.63
2023-02-05T09:47:42.687Z,16.63
2023-02-05T09:50:30.331Z,16.33
2023-02-05T09:53:21.553Z,15.57
2023-02-05T09:56:09.222Z,14.23
2023-02-05T09:58:56.306Z,16.03
2023-02-05T10:01:47.967Z,12.23
2023-02-05T10:04:33.648Z,11.33
2023-02-05T10:07:25.833Z,10.03
2023-02-05T10:10:26.182Z,12.40
2023-02-05T10:13:29.018Z,10.60
2023-02-05T10:16:30.354Z,10.17
2023-02-05T10:19:18.723Z,15.90
2023-02-05T10:22:17.184Z,12.53
2023-02-05T10:25:21.130Z,11.40
2023-02-05T10:28:15.454Z,11.40
2023-02-05T10:31:38.110Z,15.07
2023-02-05T10:34:38.278Z,17.20
2023-02-05T10:37:50.951Z,15.23
2023-02-05T10:40:42.153Z,14.87
2023-02-05T10:43:43.621Z,17.07
2023-02-05T10:46:33.591Z,18.50
2023-02-05T10:49:25.341Z,16.07
2023-02-05T10:52:15.802Z,15.03
2023-02-05T10:55:01.090Z,15.47
2023-02-05T10:57:46.617Z,12.80
2023-02-05T11:00:32.091Z,16.53
2023-02-05T11:03:19.516Z,15.07
2023-02-05T11:06:10.127Z,14.30
2023-02-05T11:08:55.938Z,14.13
2023-02-05T11:11:41.606Z,12.27
2023-02-05T11:14:32.207Z,15.67
2023-02-05T11:17:17.763Z,14.13
2023-02-05T11:20:17.866Z,15.30
2023-02-05T11:23:21.111Z,13.30
2023-02-05T11:26:20.657Z,12.73
2023-02-05T11:29:24.361Z,14.50
2023-02-05T11:32:39.148Z,13.43
2023-02-05T11:35:32.050Z,11.40
2023-02-05T11:38:33.740Z,15.00
2023-02-05T11:41:48.667Z,18.07
2023-02-05T11:44:37.323Z,14.63
2023-02-05T11:47:34.448Z,9.80
2023-02-05T11:50:25.174Z,12.03
2023-02-05T11:53:16.628Z,14.07
2023-02-05T11:56:07.794Z,16.00
2023-02-05T11:59:05.279Z,12.13
2023-02-05T12:01:50.783Z,12.07
2023-02-05T12:04:47.374Z,10.90
2023-02-05T12:07:56.950Z,15.30
2023-02-05T12:10:57.871Z,12.00
2023-02-05T12:13:54.838Z,13.60
2023-02-05T12:17:01.615Z,8.13
2023-02-05T12:20:11.973Z,12.87
2023-02-05T12:23:05.249Z,11.70
2023-02-05T12:25:59.659Z,12.43
2023-02-05T12:28:45.243Z,10.50
2023-02-05T12:31:42.545Z,13.80
2023-02-05T12:34:28.024Z,13.40
2023-02-05T12:37:13.650Z,14.70
2023-02-05T12:40:05.107Z,10.53
2023-02-05T12:43:09.180Z,14.23
2023-02-05T12:46:06.619Z,12.20
2023-02-05T12:49:29.815Z,10.83
2023-02-05T12:52:35.718Z,12.37
2023-02-05T12:55:49.780Z,14.87
2023-02-05T12:58:44.291Z,11.40
2023-02-05T13:01:54.852Z,13.77
2023-02-05T13:04:46.896Z,10.03
2023-02-05T13:08:03.752Z,9.67
2023-02-05T13:11:08.187Z,7.63
2023-02-05T13:14:13.874Z,5.00
2023-02-05T13:17:09.776Z,4.70
2023-02-05T13:20:01.647Z,5.63
2023-02-05T13:23:13.399Z,4.53
2023-02-05T13:26:08.617Z,4.30
2023-02-05T13:29:03.732Z,4.20
2023-02-05T13:32:10.638Z,7.23
2023-02-05T13:35:00.662Z,4.70
2023-02-05T13:38:10.436Z,4.80
2023-02-05T13:41:18.525Z,6.37
2023-02-05T13:44:34.947Z,4.83
2023-02-05T13:47:23.151Z,6.30
2023-02-05T13:50:30.653Z,7.27
2023-02-05T13:53:19.108Z,4.80
2023-02-05T13:56:19.507Z,6.57
2023-02-05T13:59:15.109Z,4.87
2023-02-05T14:02:01.849Z,4.73
2023-02-05T14:04:54.015Z,6.90
2023-02-05T14:07:50.893Z,7.60
2023-02-05T14:10:43.338Z,7.30
2023-02-05T14:13:34.330Z,6.83
2023-02-05T14:16:25.815Z,8.07
2023-02-05T14:19:22.047Z,6.40
2023-02-05T14:22:31.832Z,6.37
2023-02-05T14:25:35.962Z,7.93
2023-02-05T14:28:30.970Z,6.75
2023-02-05T14:31:45.691Z,8.07
2023-02-05T14:34:34.110Z,8.70
2023-02-05T14:37:37.582Z,9.53
2023-02-05T14:40:26.047Z,7.40
2023-02-05T14:43:34.716Z,7.70
2023-02-05T14:46:46.101Z,8.73
2023-02-05T14:49:34.713Z,7.93
2023-02-05T14:52:30.176Z,12.07
2023-02-05T14:55:22.249Z,12.27
2023-02-05T14:58:27.048Z,10.53
2023-02-05T15:01:41.914Z,9.00
2023-02-05T15:04:50.399Z,9.23
2023-02-05T15:07:37.100Z,6.10
2023-02-05T15:10:27.178Z,7.27
2023-02-05T15:13:18.970Z,9.13
2023-02-05T15:16:19.696Z,9.67
2023-02-05T15:19:07.350Z,8.83
2023-02-05T15:21:53.369Z,10.30
2023-02-05T15:24:40.055Z,9.13
2023-02-05T15:27:42.953Z,8.17
2023-02-05T15:30:33.588Z,10.57
2023-02-05T15:33:49.918Z,7.80
2023-02-05T15:36:45.609Z,9.02
2023-02-05T15:39:52.905Z,7.47
2023-02-05T15:42:41.563Z,11.00
2023-02-05T15:45:37.581Z,6.83
2023-02-05T15:48:29.427Z,9.97
2023-02-05T15:51:23.470Z,11.20
2023-02-05T15:54:09.109Z,7.57
2023-02-05T15:56:55.291Z,8.57
2023-02-05T15:59:40.930Z,6.30
2023-02-05T16:02:31.185Z,8.17
2023-02-05T16:05:19.941Z,7.30
2023-02-05T16:08:17.706Z,7.40
2023-02-05T16:11:05.444Z,6.07
2023-02-05T16:14:03.174Z,7.27
2023-02-05T16:16:51.557Z,7.23
2023-02-05T16:20:13.486Z,6.80
2023-02-05T16:23:02.529Z,11.03
2023-02-05T16:25:56.152Z,7.83
2023-02-05T16:28:57.942Z,7.67
2023-02-05T16:31:43.516Z,6.10
2023-02-05T16:34:29.800Z,8.77
2023-02-05T16:37:18.341Z,8.87
2023-02-05T16:40:06.820Z,8.13
2023-02-05T16:42:52.242Z,7.30
2023-02-05T16:45:38.560Z,9.23
2023-02-05T16:48:27.360Z,8.10
2023-02-05T16:51:35.817Z,7.43
2023-02-05T16:54:25.693Z,7.73
2023-02-05T16:57:14.740Z,9.00
2023-02-05T17:00:17.770Z,7.63
2023-02-05T17:03:16.316Z,7.07
2023-02-05T17:06:03.801Z,9.77
2023-02-05T17:08:55.353Z,8.40
2023-02-05T17:11:42.880Z,8.37
2023-02-05T17:14:32.989Z,9.17
2023-02-05T17:17:19.236Z,8.63
2023-02-05T17:20:21.611Z,7.93
2023-02-05T17:23:08.991Z,7.63
2023-02-05T17:25:55.797Z,10.37
2023-02-05T17:28:44.467Z,8.80
2023-02-05T17:31:32.864Z,11.93
2023-02-05T17:34:18.176Z,11.30
2023-02-05T17:37:05.200Z,10.50
2023-02-05T17:39:51.556Z,9.43
2023-02-05T17:42:37.107Z,8.73
2023-02-05T17:45:25.005Z,11.83
2023-02-05T17:48:11.528Z,8.83
2023-02-05T17:50:59.282Z,9.53
2023-02-05T17:53:44.693Z,10.13
2023-02-05T17:56:29.977Z,7.97
2023-02-05T17:59:20.415Z,9.70
2023-02-05T18:02:07.140Z,9.93
2023-02-05T18:04:53.050Z,13.07
2023-02-05T18:07:45.990Z,7.23
2023-02-05T18:10:35.131Z,10.97
2023-02-05T18:13:22.227Z,8.40
2023-02-05T18:16:10.736Z,10.63
2023-02-05T18:18:57.447Z,11.70
2023-02-05T18:21:42.789Z,9.87
2023-02-05T18:24:28.924Z,11.90
2023-02-05T18:27:14.189Z,10.70
2023-02-05T18:29:59.719Z,15.23
2023-02-05T18:32:45.073Z,13.30
2023-02-05T18:35:30.773Z,7.23
2023-02-05T18:38:16.241Z,9.00
2023-02-05T18:41:13.850Z,11.00
2023-02-05T18:43:59.875Z,12.23
2023-02-05T18:46:45.290Z,12.97
2023-02-05T18:49:30.874Z,14.20
2023-02-05T18:52:16.025Z,10.00
2023-02-05T18:55:01.575Z,8.83
2023-02-05T18:57:47.117Z,12.57
2023-02-05T19:00:32.762Z,12.87
2023-02-05T19:03:18.448Z,12.07
2023-02-05T19:06:05.650Z,12.60
2023-02-05T19:08:51.105Z,11.23
2023-02-05T19:11:40.946Z,13.23
2023-02-05T19:14:26.680Z,12.00
2023-02-05T19:17:12.414Z,11.03
2023-02-05T19:19:58.622Z,11.43
2023-02-05T19:22:44.078Z,11.50
2023-02-05T19:25:30.005Z,10.20
2023-02-05T19:28:15.230Z,12.13
2023-02-05T19:31:09.660Z,12.63
2023-02-05T19:33:56.244Z,11.93
2023-02-05T19:36:42.432Z,10.13
2023-02-05T19:39:28.036Z,13.07
2023-02-05T19:42:13.616Z,11.33
2023-02-05T19:44:59.252Z,11.53
2023-02-05T19:47:44.754Z,10.97
2023-02-05T19:50:29.985Z,13.43
2023-02-05T19:53:16.827Z,15.67
2023-02-05T19:56:10.618Z,14.53
2023-02-05T19:58:56.378Z,11.98
2023-02-05T20:01:44.632Z,13.00
2023-02-05T20:04:30.501Z,12.43
2023-02-05T20:07:15.959Z,12.63
2023-02-05T20:10:01.570Z,12.57
2023-02-05T20:12:50.430Z,11.57
2023-02-05T20:15:36.607Z,11.53
2023-02-05T20:18:22.811Z,12.00
2023-02-05T20:21:11.488Z,11.20
2023-02-05T20:23:56.830Z,11.83
2023-02-05T20:26:43.185Z,13.30
2023-02-05T20:29:47.152Z,14.90
2023-02-05T20:32:32.562Z,16.40
2023-02-05T20:35:17.934Z,18.33
2023-02-05T20:38:03.361Z,15.00
2023-02-05T20:40:48.828Z,16.50
2023-02-05T20:43:34.320Z,18.07
2023-02-05T20:46:20.418Z,17.27
2023-02-05T20:49:05.631Z,15.93
2023-02-05T20:51:52.976Z,14.50
2023-02-05T20:54:38.430Z,13.20
2023-02-05T20:57:23.736Z,16.60
2023-02-05T21:00:10.118Z,14.30
2023-02-05T21:02:55.539Z,15.07
2023-02-05T21:05:41.200Z,14.20
2023-02-05T21:08:26.860Z,13.93
2023-02-05T21:11:16.483Z,17.00
2023-02-05T21:14:03.670Z,12.50
2023-02-05T21:16:49.042Z,12.10
2023-02-05T21:19:34.435Z,14.57
2023-02-05T21:22:19.817Z,17.40
2023-02-05T21:25:05.784Z,16.60
2023-02-05T21:27:51.250Z,16.63
2023-02-05T21:30:37.402Z,16.17
2023-02-05T21:33:22.991Z,16.60
2023-02-05T21:36:10.828Z,15.30
2023-02-05T21:38:56.339Z,16.90
2023-02-05T21:41:42.629Z,17.80
2023-02-05T21:44:27.937Z,18.37
2023-02-05T21:47:13.518Z,16.27
2023-02-05T21:49:59.012Z,14.80
2023-02-05T21:52:44.430Z,13.97
2023-02-05T21:55:29.947Z,13.47
2023-02-05T21:58:15.500Z,16.80
2023-02-05T22:01:20.609Z,15.77
2023-02-05T22:04:13.512Z,16.63
2023-02-05T22:06:58.819Z,16.57
2023-02-05T22:09:44.320Z,17.20
2023-02-05T22:12:29.803Z,12.07
2023-02-05T22:15:15.511Z,12.80
2023-02-05T22:18:00.821Z,13.27
2023-02-05T22:20:46.364Z,11.33
2023-02-05T22:23:31.878Z,6.53
2023-02-05T22:26:18.768Z,8.03
2023-02-05T22:29:06.946Z,4.80
2023-02-05T22:31:54.320Z,7.50
2023-02-05T22:34:42.592Z,11.30
2023-02-05T22:37:29.551Z,14.87
2023-02-05T22:40:15.012Z,15.67
2023-02-05T22:43:00.334Z,10.80
2023-02-05T22:45:45.959Z,14.00
2023-02-05T22:48:33.854Z,8.00
2023-02-05T22:51:21.891Z,11.33
2023-02-05T22:54:11.983Z,7.37
2023-02-05T22:56:57.641Z,5.23
2023-02-05T22:59:43.332Z,5.53
2023-02-05T23:02:29.328Z,4.10
2023-02-05T23:05:14.748Z,5.87
2023-02-05T23:08:00.166Z,4.50
2023-02-05T23:10:45.978Z,5.47
2023-02-05T23:13:31.837Z,4.33
2023-02-05T23:16:21.935Z,5.17
2023-02-05T23:19:11.984Z,6.27
2023-02-05T23:21:57.252Z,5.90
2023-02-05T23:24:42.569Z,5.47
2023-02-05T23:27:29.399Z,4.90
2023-02-05T23:30:15.339Z,5.30
2023-02-05T23:33:00.543Z,5.57
2023-02-05T23:35:46.012Z,5.60
2023-02-05T23:38:31.740Z,5.60
2023-02-05T23:41:36.460Z,5.07
2023-02-05T23:47:07.737Z,5.80
2023-02-05T23:49:52.988Z,6.00
2023-02-05T23:52:38.533Z,6.27
2023-02-05T23:55:24.000Z,5.63
2023-02-05T23:58:09.973Z,5.07
